sensor_id;sensor_type;location;lat;lon;timestamp;temperature;humidity
36292;DHT22;22327;51.208;6.418;2024-03-22T00:00:43;15.40;99.90
36292;DHT22;22327;51.208;6.418;2024-03-22T00:03:44;15.40;99.90
36292;DHT22;22327;51.208;6.418;2024-03-22T00:06:47;15.40;99.90
36292;DHT22;22327;51.208;6.418;2024-03-22T00:09:48;15.40;99.90
36292;DHT22;22327;51.208;6.418;2024-03-22T00:12:51;15.50;99.90
36292;DHT22;22327;51.208;6.418;2024-03-22T00:15:52;15.40;99.90
36292;DHT22;22327;51.208;6.418;2024-03-22T00:18:52;15.50;99.90
36292;DHT22;22327;51.208;6.418;2024-03-22T00:21:53;15.50;99.90
36292;DHT22;22327;51.208;6.418;2024-03-22T00:24:53;15.50;99.90
36292;DHT22;22327;51.208;6.418;2024-03-22T00:27:55;15.50;99.90
36292;DHT22;22327;51.208;6.418;2024-03-22T00:30:55;15.50;99.90
36292;DHT22;22327;51.208;6.418;2024-03-22T00:33:56;15.60;99.90
36292;DHT22;22327;51.208;6.418;2024-03-22T00:36:57;15.60;99.90
36292;DHT22;22327;51.208;6.418;2024-03-22T00:39:58;15.60;99.90
36292;DHT22;22327;51.208;6.418;2024-03-22T00:42:58;15.60;99.90
36292;DHT22;22327;51.208;6.418;2024-03-22T00:45:59;15.60;99.90
36292;DHT22;22327;51.208;6.418;2024-03-22T00:49:00;15.70;99.90
36292;DHT22;22327;51.208;6.418;2024-03-22T00:52:01;15.70;99.90
36292;DHT22;22327;51.208;6.418;2024-03-22T00:55:01;15.70;99.90
36292;DHT22;22327;51.208;6.418;2024-03-22T00:58:02;15.70;99.90
36292;DHT22;22327;51.208;6.418;2024-03-22T01:01:02;15.70;99.90
36292;DHT22;22327;51.208;6.418;2024-03-22T01:04:03;15.60;99.90
36292;DHT22;22327;51.208;6.418;2024-03-22T01:07:04;15.60;99.90
36292;DHT22;22327;51.208;6.418;2024-03-22T01:10:04;15.60;99.90
36292;DHT22;22327;51.208;6.418;2024-03-22T01:13:05;15.60;99.90
36292;DHT22;22327;51.208;6.418;2024-03-22T01:16:06;15.60;99.90
36292;DHT22;22327;51.208;6.418;2024-03-22T01:19:10;15.60;99.90
36292;DHT22;22327;51.208;6.418;2024-03-22T01:22:10;15.60;99.90
36292;DHT22;22327;51.208;6.418;2024-03-22T01:25:11;15.70;99.90
36292;DHT22;22327;51.208;6.418;2024-03-22T01:28:11;15.70;99.90
36292;DHT22;22327;51.208;6.418;2024-03-22T01:31:12;15.60;99.90
36292;DHT22;22327;51.208;6.418;2024-03-22T01:34:12;15.70;99.90
36292;DHT22;22327;51.208;6.418;2024-03-22T01:37:13;15.70;99.90
36292;DHT22;22327;51.208;6.418;2024-03-22T01:40:14;15.70;99.90
36292;DHT22;22327;51.208;6.418;2024-03-22T01:43:15;15.70;99.90
36292;DHT22;22327;51.208;6.418;2024-03-22T01:46:15;15.60;99.90
36292;DHT22;22327;51.208;6.418;2024-03-22T01:49:16;15.60;99.90
36292;DHT22;22327;51.208;6.418;2024-03-22T01:52:17;15.60;99.90
36292;DHT22;22327;51.208;6.418;2024-03-22T01:55:17;15.70;99.90
36292;DHT22;22327;51.208;6.418;2024-03-22T01:58:18;15.70;99.90
36292;DHT22;22327;51.208;6.418;2024-03-22T02:01:19;15.70;99.90
36292;DHT22;22327;51.208;6.418;2024-03-22T02:04:20;15.70;99.90
36292;DHT22;22327;51.208;6.418;2024-03-22T02:07:20;15.70;99.90
36292;DHT22;22327;51.208;6.418;2024-03-22T02:10:21;15.60;99.90
36292;DHT22;22327;51.208;6.418;2024-03-22T02:13:22;15.60;99.90
36292;DHT22;22327;51.208;6.418;2024-03-22T02:16:22;15.60;99.90
36292;DHT22;22327;51.208;6.418;2024-03-22T02:19:23;15.60;99.90
36292;DHT22;22327;51.208;6.418;2024-03-22T02:22:23;15.70;99.90
36292;DHT22;22327;51.208;6.418;2024-03-22T02:25:24;15.70;99.90
36292;DHT22;22327;51.208;6.418;2024-03-22T02:28:24;15.70;99.90
36292;DHT22;22327;51.208;6.418;2024-03-22T02:31:25;15.80;99.90
36292;DHT22;22327;51.208;6.418;2024-03-22T02:34:27;15.70;99.90
36292;DHT22;22327;51.208;6.418;2024-03-22T02:37:27;15.80;99.90
36292;DHT22;22327;51.208;6.418;2024-03-22T02:40:28;15.80;99.90
36292;DHT22;22327;51.208;6.418;2024-03-22T02:43:29;15.80;99.90
36292;DHT22;22327;51.208;6.418;2024-03-22T02:46:30;15.90;99.90
36292;DHT22;22327;51.208;6.418;2024-03-22T02:49:30;15.80;99.90
36292;DHT22;22327;51.208;6.418;2024-03-22T02:52:31;15.80;99.90
36292;DHT22;22327;51.208;6.418;2024-03-22T02:55:38;15.80;99.90
36292;DHT22;22327;51.208;6.418;2024-03-22T02:58:39;15.80;99.90
36292;DHT22;22327;51.208;6.418;2024-03-22T03:01:40;15.80;99.90
36292;DHT22;22327;51.208;6.418;2024-03-22T03:04:40;15.80;99.90
36292;DHT22;22327;51.208;6.418;2024-03-22T03:07:41;15.80;99.90
36292;DHT22;22327;51.208;6.418;2024-03-22T03:10:41;15.70;99.90
36292;DHT22;22327;51.208;6.418;2024-03-22T03:13:42;15.80;99.90
36292;DHT22;22327;51.208;6.418;2024-03-22T03:16:42;15.80;99.90
36292;DHT22;22327;51.208;6.418;2024-03-22T03:19:44;15.80;99.90
36292;DHT22;22327;51.208;6.418;2024-03-22T03:22:44;15.70;99.90
36292;DHT22;22327;51.208;6.418;2024-03-22T03:25:46;15.70;99.90
36292;DHT22;22327;51.208;6.418;2024-03-22T03:28:46;15.70;99.90
36292;DHT22;22327;51.208;6.418;2024-03-22T03:31:47;15.50;99.90
36292;DHT22;22327;51.208;6.418;2024-03-22T03:34:47;15.40;99.90
36292;DHT22;22327;51.208;6.418;2024-03-22T03:37:48;15.40;99.90
36292;DHT22;22327;51.208;6.418;2024-03-22T03:40:48;15.40;99.90
36292;DHT22;22327;51.208;6.418;2024-03-22T03:43:49;15.40;99.90
36292;DHT22;22327;51.208;6.418;2024-03-22T03:46:49;15.30;99.90
36292;DHT22;22327;51.208;6.418;2024-03-22T03:49:50;15.30;99.90
36292;DHT22;22327;51.208;6.418;2024-03-22T03:52:50;15.30;99.90
36292;DHT22;22327;51.208;6.418;2024-03-22T03:55:51;15.30;99.90
36292;DHT22;22327;51.208;6.418;2024-03-22T03:58:51;15.20;99.90
36292;DHT22;22327;51.208;6.418;2024-03-22T04:01:54;15.20;99.90
36292;DHT22;22327;51.208;6.418;2024-03-22T04:04:54;15.20;99.90
36292;DHT22;22327;51.208;6.418;2024-03-22T04:07:55;15.10;99.90
36292;DHT22;22327;51.208;6.418;2024-03-22T04:10:55;15.10;99.90
36292;DHT22;22327;51.208;6.418;2024-03-22T04:13:57;15.10;99.90
36292;DHT22;22327;51.208;6.418;2024-03-22T04:16:57;15.10;99.90
36292;DHT22;22327;51.208;6.418;2024-03-22T04:19:58;15.20;99.90
36292;DHT22;22327;51.208;6.418;2024-03-22T04:22:58;15.20;99.90
36292;DHT22;22327;51.208;6.418;2024-03-22T04:26:00;15.20;99.90
36292;DHT22;22327;51.208;6.418;2024-03-22T04:29:01;15.30;99.90
36292;DHT22;22327;51.208;6.418;2024-03-22T04:32:01;15.30;99.90
36292;DHT22;22327;51.208;6.418;2024-03-22T04:35:03;15.30;99.90
36292;DHT22;22327;51.208;6.418;2024-03-22T04:38:03;15.40;99.90
36292;DHT22;22327;51.208;6.418;2024-03-22T04:41:04;15.40;99.90
36292;DHT22;22327;51.208;6.418;2024-03-22T04:44:04;15.50;99.90
36292;DHT22;22327;51.208;6.418;2024-03-22T04:47:05;15.50;99.90
36292;DHT22;22327;51.208;6.418;2024-03-22T04:50:06;15.50;99.90
36292;DHT22;22327;51.208;6.418;2024-03-22T04:53:08;15.50;99.90
36292;DHT22;22327;51.208;6.418;2024-03-22T04:56:08;15.50;99.90
36292;DHT22;22327;51.208;6.418;2024-03-22T04:59:09;15.50;99.90
36292;DHT22;22327;51.208;6.418;2024-03-22T05:02:10;15.50;99.90
36292;DHT22;22327;51.208;6.418;2024-03-22T05:05:11;15.50;99.90
36292;DHT22;22327;51.208;6.418;2024-03-22T05:08:12;15.60;99.90
36292;DHT22;22327;51.208;6.418;2024-03-22T05:11:13;15.60;99.90
36292;DHT22;22327;51.208;6.418;2024-03-22T05:14:14;15.60;99.90
36292;DHT22;22327;51.208;6.418;2024-03-22T05:17:14;15.60;99.90
36292;DHT22;22327;51.208;6.418;2024-03-22T05:20:16;15.60;99.90
36292;DHT22;22327;51.208;6.418;2024-03-22T05:23:16;15.70;99.90
36292;DHT22;22327;51.208;6.418;2024-03-22T05:26:18;15.70;99.90
36292;DHT22;22327;51.208;6.418;2024-03-22T05:29:21;15.80;99.90
36292;DHT22;22327;51.208;6.418;2024-03-22T05:32:21;15.70;99.90
36292;DHT22;22327;51.208;6.418;2024-03-22T05:35:22;15.80;99.90
36292;DHT22;22327;51.208;6.418;2024-03-22T05:38:22;15.70;99.90
36292;DHT22;22327;51.208;6.418;2024-03-22T05:41:23;15.80;99.90
36292;DHT22;22327;51.208;6.418;2024-03-22T05:44:23;15.70;99.90
36292;DHT22;22327;51.208;6.418;2024-03-22T05:47:24;15.80;99.90
36292;DHT22;22327;51.208;6.418;2024-03-22T05:50:24;15.80;99.90
36292;DHT22;22327;51.208;6.418;2024-03-22T05:53:25;15.80;99.90
36292;DHT22;22327;51.208;6.418;2024-03-22T05:56:25;15.80;99.90
36292;DHT22;22327;51.208;6.418;2024-03-22T05:59:26;15.80;99.90
36292;DHT22;22327;51.208;6.418;2024-03-22T06:02:27;15.70;99.90
36292;DHT22;22327;51.208;6.418;2024-03-22T06:05:28;15.80;99.90
36292;DHT22;22327;51.208;6.418;2024-03-22T06:08:29;15.80;99.90
36292;DHT22;22327;51.208;6.418;2024-03-22T06:11:32;15.90;99.90
36292;DHT22;22327;51.208;6.418;2024-03-22T06:14:33;16.00;99.90
36292;DHT22;22327;51.208;6.418;2024-03-22T06:17:33;16.00;99.90
36292;DHT22;22327;51.208;6.418;2024-03-22T06:20:34;16.10;99.90
36292;DHT22;22327;51.208;6.418;2024-03-22T06:23:34;16.20;99.90
36292;DHT22;22327;51.208;6.418;2024-03-22T06:26:35;16.30;99.90
36292;DHT22;22327;51.208;6.418;2024-03-22T06:29:36;16.30;99.90
36292;DHT22;22327;51.208;6.418;2024-03-22T06:32:36;16.30;99.90
36292;DHT22;22327;51.208;6.418;2024-03-22T06:35:37;16.40;99.90
36292;DHT22;22327;51.208;6.418;2024-03-22T06:38:37;16.40;99.90
36292;DHT22;22327;51.208;6.418;2024-03-22T06:41:38;16.50;99.90
36292;DHT22;22327;51.208;6.418;2024-03-22T06:44:39;16.50;99.90
36292;DHT22;22327;51.208;6.418;2024-03-22T06:47:39;16.50;99.90
36292;DHT22;22327;51.208;6.418;2024-03-22T06:50:41;16.50;99.90
36292;DHT22;22327;51.208;6.418;2024-03-22T06:53:42;16.60;99.90
36292;DHT22;22327;51.208;6.418;2024-03-22T06:56:42;16.60;99.90
36292;DHT22;22327;51.208;6.418;2024-03-22T06:59:43;16.60;99.90
36292;DHT22;22327;51.208;6.418;2024-03-22T07:02:44;16.70;99.90
36292;DHT22;22327;51.208;6.418;2024-03-22T07:05:47;16.80;99.90
36292;DHT22;22327;51.208;6.418;2024-03-22T07:08:48;16.90;99.90
36292;DHT22;22327;51.208;6.418;2024-03-22T07:11:48;17.00;99.90
36292;DHT22;22327;51.208;6.418;2024-03-22T07:14:49;17.10;99.90
36292;DHT22;22327;51.208;6.418;2024-03-22T07:17:50;17.20;99.90
36292;DHT22;22327;51.208;6.418;2024-03-22T07:20:51;17.20;99.90
36292;DHT22;22327;51.208;6.418;2024-03-22T07:23:52;17.40;99.90
36292;DHT22;22327;51.208;6.418;2024-03-22T07:26:52;17.50;99.90
36292;DHT22;22327;51.208;6.418;2024-03-22T07:29:53;17.80;99.90
36292;DHT22;22327;51.208;6.418;2024-03-22T07:32:53;18.00;99.00
36292;DHT22;22327;51.208;6.418;2024-03-22T07:35:54;17.90;99.10
36292;DHT22;22327;51.208;6.418;2024-03-22T07:38:55;17.70;99.10
36292;DHT22;22327;51.208;6.418;2024-03-22T07:41:56;17.60;99.20
36292;DHT22;22327;51.208;6.418;2024-03-22T07:44:57;17.50;99.00
36292;DHT22;22327;51.208;6.418;2024-03-22T07:47:57;17.30;99.40
36292;DHT22;22327;51.208;6.418;2024-03-22T07:50:59;17.30;99.70
36292;DHT22;22327;51.208;6.418;2024-03-22T07:53:59;17.20;99.60
36292;DHT22;22327;51.208;6.418;2024-03-22T07:57:00;17.20;99.80
36292;DHT22;22327;51.208;6.418;2024-03-22T08:00:00;17.30;99.50
36292;DHT22;22327;51.208;6.418;2024-03-22T08:03:01;17.20;99.50
36292;DHT22;22327;51.208;6.418;2024-03-22T08:06:02;17.20;99.50
36292;DHT22;22327;51.208;6.418;2024-03-22T08:09:03;17.20;99.70
36292;DHT22;22327;51.208;6.418;2024-03-22T08:12:03;17.40;99.30
36292;DHT22;22327;51.208;6.418;2024-03-22T08:15:04;17.40;99.30
36292;DHT22;22327;51.208;6.418;2024-03-22T08:18:06;17.40;99.50
36292;DHT22;22327;51.208;6.418;2024-03-22T08:21:06;17.60;99.10
36292;DHT22;22327;51.208;6.418;2024-03-22T08:24:07;17.70;99.00
36292;DHT22;22327;51.208;6.418;2024-03-22T08:27:07;17.80;98.80
36292;DHT22;22327;51.208;6.418;2024-03-22T08:30:08;17.80;98.50
36292;DHT22;22327;51.208;6.418;2024-03-22T08:33:10;18.00;98.30
36292;DHT22;22327;51.208;6.418;2024-03-22T08:36:11;18.20;98.10
36292;DHT22;22327;51.208;6.418;2024-03-22T08:39:12;18.30;97.80
36292;DHT22;22327;51.208;6.418;2024-03-22T08:42:13;18.40;97.50
36292;DHT22;22327;51.208;6.418;2024-03-22T08:45:13;18.30;97.40
36292;DHT22;22327;51.208;6.418;2024-03-22T08:48:14;18.30;97.40
36292;DHT22;22327;51.208;6.418;2024-03-22T08:51:14;18.30;97.00
36292;DHT22;22327;51.208;6.418;2024-03-22T08:54:15;18.40;97.50
36292;DHT22;22327;51.208;6.418;2024-03-22T08:57:15;18.80;97.80
36292;DHT22;22327;51.208;6.418;2024-03-22T09:00:17;19.20;96.50
36292;DHT22;22327;51.208;6.418;2024-03-22T09:03:17;19.30;95.50
36292;DHT22;22327;51.208;6.418;2024-03-22T09:06:18;19.30;95.20
36292;DHT22;22327;51.208;6.418;2024-03-22T09:09:20;19.40;95.20
36292;DHT22;22327;51.208;6.418;2024-03-22T09:12:21;19.90;94.80
36292;DHT22;22327;51.208;6.418;2024-03-22T09:15:21;20.70;94.40
36292;DHT22;22327;51.208;6.418;2024-03-22T09:18:22;21.40;92.40
36292;DHT22;22327;51.208;6.418;2024-03-22T09:21:22;21.80;91.70
36292;DHT22;22327;51.208;6.418;2024-03-22T09:24:24;22.30;91.00
36292;DHT22;22327;51.208;6.418;2024-03-22T09:27:25;22.80;86.80
36292;DHT22;22327;51.208;6.418;2024-03-22T09:30:25;22.80;86.60
36292;DHT22;22327;51.208;6.418;2024-03-22T09:33:26;22.70;84.20
36292;DHT22;22327;51.208;6.418;2024-03-22T09:36:27;22.50;83.20
36292;DHT22;22327;51.208;6.418;2024-03-22T09:39:27;22.20;82.10
36292;DHT22;22327;51.208;6.418;2024-03-22T09:42:30;21.70;82.10
36292;DHT22;22327;51.208;6.418;2024-03-22T09:45:32;21.30;82.80
36292;DHT22;22327;51.208;6.418;2024-03-22T09:48:33;21.00;83.20
36292;DHT22;22327;51.208;6.418;2024-03-22T09:51:34;20.70;85.40
36292;DHT22;22327;51.208;6.418;2024-03-22T09:54:35;20.50;86.30
36292;DHT22;22327;51.208;6.418;2024-03-22T09:57:38;20.40;86.70
36292;DHT22;22327;51.208;6.418;2024-03-22T10:00:40;20.20;86.80
36292;DHT22;22327;51.208;6.418;2024-03-22T10:03:40;20.00;87.00
36292;DHT22;22327;51.208;6.418;2024-03-22T10:06:41;19.90;87.90
36292;DHT22;22327;51.208;6.418;2024-03-22T10:09:41;19.70;89.00
36292;DHT22;22327;51.208;6.418;2024-03-22T10:12:44;19.80;88.40
36292;DHT22;22327;51.208;6.418;2024-03-22T10:15:46;19.90;87.80
36292;DHT22;22327;51.208;6.418;2024-03-22T10:18:46;20.00;86.70
36292;DHT22;22327;51.208;6.418;2024-03-22T10:25:04;20.00;86.80
36292;DHT22;22327;51.208;6.418;2024-03-22T10:28:06;19.80;87.80
36292;DHT22;22327;51.208;6.418;2024-03-22T10:31:07;19.70;88.80
36292;DHT22;22327;51.208;6.418;2024-03-22T10:34:08;19.80;88.70
36292;DHT22;22327;51.208;6.418;2024-03-22T10:37:10;19.90;88.20
36292;DHT22;22327;51.208;6.418;2024-03-22T10:40:14;19.90;87.10
36292;DHT22;22327;51.208;6.418;2024-03-22T10:43:15;19.80;88.00
36292;DHT22;22327;51.208;6.418;2024-03-22T10:46:16;19.80;88.30
36292;DHT22;22327;51.208;6.418;2024-03-22T10:49:20;19.80;87.80
36292;DHT22;22327;51.208;6.418;2024-03-22T10:52:20;19.80;87.40
36292;DHT22;22327;51.208;6.418;2024-03-22T10:55:26;19.80;88.60
36292;DHT22;22327;51.208;6.418;2024-03-22T10:58:31;19.70;89.30
36292;DHT22;22327;51.208;6.418;2024-03-22T11:01:31;19.90;90.10
36292;DHT22;22327;51.208;6.418;2024-03-22T11:04:37;20.10;88.80
36292;DHT22;22327;51.208;6.418;2024-03-22T11:07:37;20.20;88.60
36292;DHT22;22327;51.208;6.418;2024-03-22T11:10:38;20.30;89.00
36292;DHT22;22327;51.208;6.418;2024-03-22T11:13:41;20.40;88.80
36292;DHT22;22327;51.208;6.418;2024-03-22T11:16:46;20.60;89.50
36292;DHT22;22327;51.208;6.418;2024-03-22T11:19:47;20.80;88.90
36292;DHT22;22327;51.208;6.418;2024-03-22T11:22:47;20.90;88.50
36292;DHT22;22327;51.208;6.418;2024-03-22T11:25:48;20.80;87.70
36292;DHT22;22327;51.208;6.418;2024-03-22T11:28:48;20.70;86.70
36292;DHT22;22327;51.208;6.418;2024-03-22T11:31:50;20.30;87.30
36292;DHT22;22327;51.208;6.418;2024-03-22T11:34:50;20.10;88.50
36292;DHT22;22327;51.208;6.418;2024-03-22T11:37:51;20.00;88.80
36292;DHT22;22327;51.208;6.418;2024-03-22T11:40:51;20.00;89.50
36292;DHT22;22327;51.208;6.418;2024-03-22T11:43:52;20.00;89.60
36292;DHT22;22327;51.208;6.418;2024-03-22T11:46:53;20.10;89.70
36292;DHT22;22327;51.208;6.418;2024-03-22T11:49:55;20.00;89.80
36292;DHT22;22327;51.208;6.418;2024-03-22T11:52:59;19.80;90.10
36292;DHT22;22327;51.208;6.418;2024-03-22T11:55:59;19.60;90.50
36292;DHT22;22327;51.208;6.418;2024-03-22T11:59:01;19.30;90.90
36292;DHT22;22327;51.208;6.418;2024-03-22T12:02:02;19.10;91.20
36292;DHT22;22327;51.208;6.418;2024-03-22T12:05:05;19.00;91.50
36292;DHT22;22327;51.208;6.418;2024-03-22T12:08:06;19.00;92.00
36292;DHT22;22327;51.208;6.418;2024-03-22T12:11:10;19.10;91.80
36292;DHT22;22327;51.208;6.418;2024-03-22T12:14:11;19.20;91.90
36292;DHT22;22327;51.208;6.418;2024-03-22T12:17:11;19.30;91.40
36292;DHT22;22327;51.208;6.418;2024-03-22T12:20:12;19.40;91.60
36292;DHT22;22327;51.208;6.418;2024-03-22T12:23:15;19.40;91.20
36292;DHT22;22327;51.208;6.418;2024-03-22T12:26:15;19.40;91.20
36292;DHT22;22327;51.208;6.418;2024-03-22T12:29:16;19.40;91.30
36292;DHT22;22327;51.208;6.418;2024-03-22T12:32:17;19.40;91.20
36292;DHT22;22327;51.208;6.418;2024-03-22T12:35:17;19.30;91.40
36292;DHT22;22327;51.208;6.418;2024-03-22T12:38:18;19.20;91.30
36292;DHT22;22327;51.208;6.418;2024-03-22T12:41:19;19.20;91.90
36292;DHT22;22327;51.208;6.418;2024-03-22T12:44:20;19.20;91.70
36292;DHT22;22327;51.208;6.418;2024-03-22T12:47:20;19.40;91.90
36292;DHT22;22327;51.208;6.418;2024-03-22T12:50:21;19.30;91.40
36292;DHT22;22327;51.208;6.418;2024-03-22T12:53:21;19.40;91.60
36292;DHT22;22327;51.208;6.418;2024-03-22T12:56:22;19.20;91.30
36292;DHT22;22327;51.208;6.418;2024-03-22T12:59:24;19.20;91.60
36292;DHT22;22327;51.208;6.418;2024-03-22T13:02:24;19.10;91.50
36292;DHT22;22327;51.208;6.418;2024-03-22T13:05:28;19.10;91.80
36292;DHT22;22327;51.208;6.418;2024-03-22T13:08:28;19.10;91.90
36292;DHT22;22327;51.208;6.418;2024-03-22T13:11:29;19.10;91.90
36292;DHT22;22327;51.208;6.418;2024-03-22T13:14:29;19.00;91.80
36292;DHT22;22327;51.208;6.418;2024-03-22T13:17:30;18.90;92.00
36292;DHT22;22327;51.208;6.418;2024-03-22T13:20:30;18.80;92.00
36292;DHT22;22327;51.208;6.418;2024-03-22T13:23:31;18.60;92.40
36292;DHT22;22327;51.208;6.418;2024-03-22T13:26:31;18.50;92.70
36292;DHT22;22327;51.208;6.418;2024-03-22T13:29:32;18.50;92.60
36292;DHT22;22327;51.208;6.418;2024-03-22T13:32:32;18.40;92.70
36292;DHT22;22327;51.208;6.418;2024-03-22T13:35:33;18.40;92.60
36292;DHT22;22327;51.208;6.418;2024-03-22T13:38:34;18.40;92.80
36292;DHT22;22327;51.208;6.418;2024-03-22T13:41:35;18.30;92.70
36292;DHT22;22327;51.208;6.418;2024-03-22T13:44:35;18.20;93.10
36292;DHT22;22327;51.208;6.418;2024-03-22T13:47:36;18.20;93.40
36292;DHT22;22327;51.208;6.418;2024-03-22T13:50:40;18.20;93.50
36292;DHT22;22327;51.208;6.418;2024-03-22T13:53:41;18.20;93.40
36292;DHT22;22327;51.208;6.418;2024-03-22T13:56:43;18.30;93.00
36292;DHT22;22327;51.208;6.418;2024-03-22T13:59:43;18.20;93.10
36292;DHT22;22327;51.208;6.418;2024-03-22T14:02:44;18.20;93.20
36292;DHT22;22327;51.208;6.418;2024-03-22T14:05:45;18.10;93.10
36292;DHT22;22327;51.208;6.418;2024-03-22T14:08:46;18.10;93.40
36292;DHT22;22327;51.208;6.418;2024-03-22T14:11:46;18.00;93.40
36292;DHT22;22327;51.208;6.418;2024-03-22T14:14:49;17.80;93.60
36292;DHT22;22327;51.208;6.418;2024-03-22T14:17:49;17.70;93.80
36292;DHT22;22327;51.208;6.418;2024-03-22T14:20:50;17.60;94.00
36292;DHT22;22327;51.208;6.418;2024-03-22T14:23:51;17.50;94.10
36292;DHT22;22327;51.208;6.418;2024-03-22T14:26:51;17.40;94.40
36292;DHT22;22327;51.208;6.418;2024-03-22T14:29:52;17.40;94.50
36292;DHT22;22327;51.208;6.418;2024-03-22T14:32:52;17.30;94.70
36292;DHT22;22327;51.208;6.418;2024-03-22T14:35:53;17.20;95.00
36292;DHT22;22327;51.208;6.418;2024-03-22T14:38:53;17.10;95.10
36292;DHT22;22327;51.208;6.418;2024-03-22T14:41:54;17.10;95.30
36292;DHT22;22327;51.208;6.418;2024-03-22T14:44:55;17.00;95.50
36292;DHT22;22327;51.208;6.418;2024-03-22T14:47:56;16.90;95.70
36292;DHT22;22327;51.208;6.418;2024-03-22T14:50:57;16.80;96.00
36292;DHT22;22327;51.208;6.418;2024-03-22T14:53:58;16.70;96.20
36292;DHT22;22327;51.208;6.418;2024-03-22T14:56:59;16.70;96.40
36292;DHT22;22327;51.208;6.418;2024-03-22T14:59:59;16.60;96.80
36292;DHT22;22327;51.208;6.418;2024-03-22T15:03:00;16.50;97.20
36292;DHT22;22327;51.208;6.418;2024-03-22T15:06:01;16.40;97.80
36292;DHT22;22327;51.208;6.418;2024-03-22T15:09:01;16.30;98.00
36292;DHT22;22327;51.208;6.418;2024-03-22T15:12:09;16.30;98.10
36292;DHT22;22327;51.208;6.418;2024-03-22T15:15:09;16.10;98.70
36292;DHT22;22327;51.208;6.418;2024-03-22T15:18:10;16.10;98.70
36292;DHT22;22327;51.208;6.418;2024-03-22T15:21:11;16.20;99.00
36292;DHT22;22327;51.208;6.418;2024-03-22T15:24:12;16.20;99.40
36292;DHT22;22327;51.208;6.418;2024-03-22T15:27:12;16.00;99.70
36292;DHT22;22327;51.208;6.418;2024-03-22T15:30:13;16.00;99.90
36292;DHT22;22327;51.208;6.418;2024-03-22T15:33:14;15.80;99.90
36292;DHT22;22327;51.208;6.418;2024-03-22T15:36:16;15.70;99.90
36292;DHT22;22327;51.208;6.418;2024-03-22T15:39:17;15.60;99.90
36292;DHT22;22327;51.208;6.418;2024-03-22T15:42:18;15.40;99.90
36292;DHT22;22327;51.208;6.418;2024-03-22T15:45:19;15.30;99.90
36292;DHT22;22327;51.208;6.418;2024-03-22T15:48:19;15.20;99.90
36292;DHT22;22327;51.208;6.418;2024-03-22T15:51:21;15.20;99.90
36292;DHT22;22327;51.208;6.418;2024-03-22T15:54:23;15.20;99.90
36292;DHT22;22327;51.208;6.418;2024-03-22T15:57:24;15.30;99.90
36292;DHT22;22327;51.208;6.418;2024-03-22T16:00:25;15.30;99.90
36292;DHT22;22327;51.208;6.418;2024-03-22T16:03:28;15.40;99.90
36292;DHT22;22327;51.208;6.418;2024-03-22T16:06:29;15.40;99.90
36292;DHT22;22327;51.208;6.418;2024-03-22T16:09:31;15.40;99.90
36292;DHT22;22327;51.208;6.418;2024-03-22T16:12:31;15.50;99.90
36292;DHT22;22327;51.208;6.418;2024-03-22T16:15:32;15.50;99.90
36292;DHT22;22327;51.208;6.418;2024-03-22T16:18:32;15.40;99.90
36292;DHT22;22327;51.208;6.418;2024-03-22T16:21:34;15.50;99.90
36292;DHT22;22327;51.208;6.418;2024-03-22T16:24:34;15.50;99.90
36292;DHT22;22327;51.208;6.418;2024-03-22T16:27:35;15.40;99.90
36292;DHT22;22327;51.208;6.418;2024-03-22T16:30:35;15.30;99.90
36292;DHT22;22327;51.208;6.418;2024-03-22T16:33:36;15.30;99.90
36292;DHT22;22327;51.208;6.418;2024-03-22T16:36:36;15.30;99.90
36292;DHT22;22327;51.208;6.418;2024-03-22T16:39:37;15.20;99.90
36292;DHT22;22327;51.208;6.418;2024-03-22T16:42:45;15.20;99.90
36292;DHT22;22327;51.208;6.418;2024-03-22T16:45:46;15.20;99.90
36292;DHT22;22327;51.208;6.418;2024-03-22T16:48:46;15.20;99.90
36292;DHT22;22327;51.208;6.418;2024-03-22T16:51:47;15.20;99.90
36292;DHT22;22327;51.208;6.418;2024-03-22T16:54:48;15.20;99.90
36292;DHT22;22327;51.208;6.418;2024-03-22T16:57:48;15.10;99.90
36292;DHT22;22327;51.208;6.418;2024-03-22T17:00:50;15.10;99.90
36292;DHT22;22327;51.208;6.418;2024-03-22T17:03:51;15.10;99.90
36292;DHT22;22327;51.208;6.418;2024-03-22T17:06:51;15.00;99.90
36292;DHT22;22327;51.208;6.418;2024-03-22T17:09:52;15.00;99.90
36292;DHT22;22327;51.208;6.418;2024-03-22T17:12:53;14.90;99.90
36292;DHT22;22327;51.208;6.418;2024-03-22T17:15:53;14.80;99.90
36292;DHT22;22327;51.208;6.418;2024-03-22T17:18:54;14.80;99.90
36292;DHT22;22327;51.208;6.418;2024-03-22T17:21:55;14.70;99.90
36292;DHT22;22327;51.208;6.418;2024-03-22T17:24:55;14.70;99.90
36292;DHT22;22327;51.208;6.418;2024-03-22T17:27:56;14.70;99.90
36292;DHT22;22327;51.208;6.418;2024-03-22T17:30:56;14.60;99.90
36292;DHT22;22327;51.208;6.418;2024-03-22T17:33:58;14.60;99.90
36292;DHT22;22327;51.208;6.418;2024-03-22T17:37:01;14.70;99.90
36292;DHT22;22327;51.208;6.418;2024-03-22T17:40:02;14.60;99.90
36292;DHT22;22327;51.208;6.418;2024-03-22T17:43:04;14.70;99.90
36292;DHT22;22327;51.208;6.418;2024-03-22T17:46:05;14.60;99.90
36292;DHT22;22327;51.208;6.418;2024-03-22T17:49:06;14.50;99.90
36292;DHT22;22327;51.208;6.418;2024-03-22T17:52:07;14.50;99.90
36292;DHT22;22327;51.208;6.418;2024-03-22T17:55:08;14.50;99.90
36292;DHT22;22327;51.208;6.418;2024-03-22T17:58:08;14.50;99.90
36292;DHT22;22327;51.208;6.418;2024-03-22T18:01:09;14.40;99.90
36292;DHT22;22327;51.208;6.418;2024-03-22T18:04:09;14.40;99.90
36292;DHT22;22327;51.208;6.418;2024-03-22T18:07:11;14.40;99.90
36292;DHT22;22327;51.208;6.418;2024-03-22T18:10:12;14.40;99.90
36292;DHT22;22327;51.208;6.418;2024-03-22T18:13:12;14.40;99.90
36292;DHT22;22327;51.208;6.418;2024-03-22T18:16:13;14.40;99.90
36292;DHT22;22327;51.208;6.418;2024-03-22T18:19:14;14.40;99.90
36292;DHT22;22327;51.208;6.418;2024-03-22T18:22:14;14.40;99.90
36292;DHT22;22327;51.208;6.418;2024-03-22T18:25:16;14.30;99.90
36292;DHT22;22327;51.208;6.418;2024-03-22T18:28:17;14.40;99.90
36292;DHT22;22327;51.208;6.418;2024-03-22T18:31:17;14.40;99.90
36292;DHT22;22327;51.208;6.418;2024-03-22T18:34:20;14.40;99.90
36292;DHT22;22327;51.208;6.418;2024-03-22T18:37:20;14.30;99.90
36292;DHT22;22327;51.208;6.418;2024-03-22T18:40:21;14.30;99.90
36292;DHT22;22327;51.208;6.418;2024-03-22T18:43:21;14.30;99.90
36292;DHT22;22327;51.208;6.418;2024-03-22T18:46:22;14.40;99.90
36292;DHT22;22327;51.208;6.418;2024-03-22T18:49:22;14.40;99.90
36292;DHT22;22327;51.208;6.418;2024-03-22T18:52:23;14.50;99.90
36292;DHT22;22327;51.208;6.418;2024-03-22T18:55:23;14.50;99.90
36292;DHT22;22327;51.208;6.418;2024-03-22T18:58:24;14.50;99.90
36292;DHT22;22327;51.208;6.418;2024-03-22T19:01:25;14.20;99.90
36292;DHT22;22327;51.208;6.418;2024-03-22T19:04:25;14.00;99.90